Nearby METAR Reports

This page may be slow to load as it queries the National Weather Service for data.

KBIS - Bismarck, North Dakota, USA
Distance from station: S 10mi, 15km
Updated: Tue, 13-Apr-2021 8:52pm CDT
Overcast
Overcast
 Wind from NNW
Wind: NNW 16 mph , 26 km/h, Gust: 26 mph , 43 km/h
Temperature: 28°F , -2°C
Wind Chill: 16°F , -9°C
Dew Point: 19°F , -7°C
Humidity: 69%
Barometer: 30.24 inHg , 1024 hPa
Clouds: Overcast
Visibility: 10 miles , 16 km
Cloud details: Overcast 2200 ft
2021/04/14 01:52 KBIS 140152Z 33014G23KT 10SM OVC022 M02/M07 A3024 RMK AO2 PK WND 35028/0058 SLP265 T10221067
KDIK - Dickinson, North Dakota, USA
Distance from station: W 95mi, 154km
Updated: Tue, 13-Apr-2021 8:56pm CDT
Overcast
Overcast
 Wind from NNW
Wind: NNW 15 mph , 24 km/h
Temperature: 27°F , -3°C
Wind Chill: 15°F , -9°C
Dew Point: 18°F , -8°C
Humidity: 69%
Barometer: 30.22 inHg , 1023.4 hPa
Clouds: Overcast
Visibility: 10 miles , 16 km
Cloud details: Overcast 2100 ft
2021/04/14 01:56 KDIK 140156Z AUTO 33013KT 10SM OVC021 M03/M08 A3022 RMK AO2 SLP269 T10331078
 
KXWA - Williston, North Dakota, USA
Distance from station: NNW 2mi, 2km
Updated: Tue, 13-Apr-2021 8:51pm CDT
Overcast
Overcast
 Wind from N
Wind: N 16 mph , 26 km/h
Temperature: 23°F , -5°C
Wind Chill: 10°F , -12°C
Dew Point: 18°F , -8°C
Humidity: 80%
Barometer: 30.29 inHg , 1025.7 hPa
Clouds: Overcast
Visibility: 10 miles , 16 km
Cloud details: Mostly cloudy 1000 ft
Overcast 1400 ft
2021/04/14 01:51 KXWA 140151Z AUTO 01014KT 10SM BKN010 OVC014 M05/M08 A3029 RMK AO2 CIG 009V013 SLP305 T10501078
KFAR - Fargo, North Dakota, USA
Distance from station: NNW 4mi, 7km
Updated: Tue, 13-Apr-2021 9:09pm CDT
Light snow, Mist, Overcast
Light snow, Mist, Overcast
 Wind from NNW
Wind: NNW 16 mph , 26 km/h
Temperature: 28°F , -2°C
Wind Chill: 16°F , -9°C
Dew Point: 27°F , -3°C
Humidity: 93%
Barometer: 30.11 inHg , 1019.6 hPa
Summary: Light snow, Mist
Clouds: Overcast
Visibility: 4 miles , 6 km
Cloud details: Few Clouds 900 ft
Partly cloudy 1700 ft
Overcast 2600 ft
2021/04/14 02:09 KFAR 140209Z 33014KT 4SM -SN BR FEW009 SCT017 OVC026 M02/M03 A3011 RMK AO2 P0000 T10171033 $
 
KGFK - Grand Forks, North Dakota, USA
Distance from station: NNW 76mi, 123km
Updated: Tue, 13-Apr-2021 8:53pm CDT
Light snow, Overcast
Light snow, Overcast
 Wind from NNW
Wind: NNW 20 mph , 31 km/h, Gust: 28 mph , 44 km/h
Temperature: 28°F , -2°C
Wind Chill: 15°F , -9°C
Dew Point: 25°F , -4°C
Humidity: 86%
Barometer: 30.12 inHg , 1020 hPa
Summary: Light Snow
Clouds: Overcast
Visibility: 7 miles , 11 km
Cloud details: Overcast 1200 ft
2021/04/14 01:53 KGFK 140153Z 34017G24KT 7SM -SN OVC012 M02/M04 A3012 RMK AO2 SNB34 SLP214 P0000 T10221044 $
KMOT - Minot, North Dakota, USA
Distance from station: E 109mi, 175km
Updated: Tue, 13-Apr-2021 9:34pm CDT
Overcast
Overcast
 Wind from NNW
Wind: NNW 17 mph , 28 km/h
Temperature: 23°F , -5°C
Wind Chill: 9°F , -13°C
Dew Point: 19°F , -7°C
Humidity: 86%
Barometer: 30.28 inHg , 1025.4 hPa
Clouds: Overcast
Visibility: 10 miles , 16 km
Cloud details: Mostly cloudy 900 ft
Overcast 2400 ft
2021/04/14 02:34 KMOT 140234Z 34015KT 10SM BKN009 OVC024 M05/M07 A3028 RMK AO2 T10501072